Terminal Aerodrome Forecast
Issued by NWS

Home | Current Version | Previous Version | Text Only | Print | Product List | Glossary On
Versions: 1 2 3 4 5 6 7 8 9 10 11 12 13 14 15 16 17 18 19
807
FTUS43 KMQT 191953 AAA
TAFCMX
TAF AMD
KCMX 191953Z 1920/2018 22004KT 4SM BR OVC004
     FM192300 21004KT 5SM BR SCT005
     FM200400 21003KT P6SM BKN005
     FM200700 00000KT 1/4SM FG BKN002
     FM201500 00000KT 1/2SM FG BKN003
     FM201600 00000KT P6SM OVC003=

USA.gov is the U.S. government's official web portal to all federal, state and local government web resources and services.